sensor_id;sensor_type;location;lat;lon;timestamp;temperature;humidity
6954;DHT22;3516;47.980;8.808;2023-06-14T15:54:20;8.00;99.90
6954;DHT22;3516;47.980;8.808;2023-06-14T15:56:47;24.70;27.70
6954;DHT22;3516;47.980;8.808;2023-06-14T15:59:13;24.90;27.50
6954;DHT22;3516;47.980;8.808;2023-06-14T16:01:40;25.10;26.80
6954;DHT22;3516;47.980;8.808;2023-06-14T16:04:08;25.00;26.60
6954;DHT22;3516;47.980;8.808;2023-06-14T16:06:35;25.00;26.80
6954;DHT22;3516;47.980;8.808;2023-06-14T16:09:02;24.90;26.70
6954;DHT22;3516;47.980;8.808;2023-06-14T16:11:29;24.70;26.60
6954;DHT22;3516;47.980;8.808;2023-06-14T16:13:56;24.60;26.50
6954;DHT22;3516;47.980;8.808;2023-06-14T16:16:22;24.30;26.60
6954;DHT22;3516;47.980;8.808;2023-06-14T16:18:49;24.20;26.80
6954;DHT22;3516;47.980;8.808;2023-06-14T16:21:17;24.10;26.80
6954;DHT22;3516;47.980;8.808;2023-06-14T16:23:44;23.90;27.20
6954;DHT22;3516;47.980;8.808;2023-06-14T16:26:11;23.80;27.20
6954;DHT22;3516;47.980;8.808;2023-06-14T16:28:39;23.80;26.90
6954;DHT22;3516;47.980;8.808;2023-06-14T16:31:07;23.90;27.10
6954;DHT22;3516;47.980;8.808;2023-06-14T16:33:34;23.90;26.80
6954;DHT22;3516;47.980;8.808;2023-06-14T16:36:00;23.90;27.00
6954;DHT22;3516;47.980;8.808;2023-06-14T16:38:28;23.90;27.00
6954;DHT22;3516;47.980;8.808;2023-06-14T16:40:55;23.80;26.70
6954;DHT22;3516;47.980;8.808;2023-06-14T16:43:22;23.70;27.00
6954;DHT22;3516;47.980;8.808;2023-06-14T16:45:48;23.60;27.10
6954;DHT22;3516;47.980;8.808;2023-06-14T16:48:15;23.50;27.00
6954;DHT22;3516;47.980;8.808;2023-06-14T16:50:46;23.40;26.80
6954;DHT22;3516;47.980;8.808;2023-06-14T16:53:12;23.30;27.10
6954;DHT22;3516;47.980;8.808;2023-06-14T16:55:40;23.30;27.50
6954;DHT22;3516;47.980;8.808;2023-06-14T16:58:07;23.20;27.60
6954;DHT22;3516;47.980;8.808;2023-06-14T17:00:34;23.20;27.70
6954;DHT22;3516;47.980;8.808;2023-06-14T17:03:01;23.10;27.60
6954;DHT22;3516;47.980;8.808;2023-06-14T17:05:30;23.00;27.80
6954;DHT22;3516;47.980;8.808;2023-06-14T17:07:56;22.90;28.00
6954;DHT22;3516;47.980;8.808;2023-06-14T17:10:23;22.80;28.10
6954;DHT22;3516;47.980;8.808;2023-06-14T17:12:51;22.60;28.20
6954;DHT22;3516;47.980;8.808;2023-06-14T17:15:18;22.50;28.60
6954;DHT22;3516;47.980;8.808;2023-06-14T17:17:45;22.40;28.90
6954;DHT22;3516;47.980;8.808;2023-06-14T17:20:11;22.40;29.00
6954;DHT22;3516;47.980;8.808;2023-06-14T17:22:38;22.30;29.20
6954;DHT22;3516;47.980;8.808;2023-06-14T17:25:06;22.30;29.20
6954;DHT22;3516;47.980;8.808;2023-06-14T17:27:33;22.30;29.20
6954;DHT22;3516;47.980;8.808;2023-06-14T17:30:01;22.20;29.50
6954;DHT22;3516;47.980;8.808;2023-06-14T17:32:28;22.20;29.70
6954;DHT22;3516;47.980;8.808;2023-06-14T17:34:55;22.10;29.60
6954;DHT22;3516;47.980;8.808;2023-06-14T17:37:22;22.10;30.00
6954;DHT22;3516;47.980;8.808;2023-06-14T17:39:48;22.10;30.00
6954;DHT22;3516;47.980;8.808;2023-06-14T17:42:15;22.00;29.80
6954;DHT22;3516;47.980;8.808;2023-06-14T17:44:42;22.00;29.90
6954;DHT22;3516;47.980;8.808;2023-06-14T17:47:11;21.90;29.90
6954;DHT22;3516;47.980;8.808;2023-06-14T17:49:37;21.80;30.10
6954;DHT22;3516;47.980;8.808;2023-06-14T17:52:04;21.80;30.40
6954;DHT22;3516;47.980;8.808;2023-06-14T17:54:31;21.70;30.60
6954;DHT22;3516;47.980;8.808;2023-06-14T17:56:58;21.60;30.20
6954;DHT22;3516;47.980;8.808;2023-06-14T17:59:25;21.60;30.30
6954;DHT22;3516;47.980;8.808;2023-06-14T18:01:52;21.50;30.60
6954;DHT22;3516;47.980;8.808;2023-06-14T18:04:20;21.40;30.90
6954;DHT22;3516;47.980;8.808;2023-06-14T18:06:46;21.40;30.60
6954;DHT22;3516;47.980;8.808;2023-06-14T18:09:13;21.30;30.70
6954;DHT22;3516;47.980;8.808;2023-06-14T18:11:40;21.20;31.00
6954;DHT22;3516;47.980;8.808;2023-06-14T18:14:07;21.20;31.20
6954;DHT22;3516;47.980;8.808;2023-06-14T18:16:33;21.10;31.40
6954;DHT22;3516;47.980;8.808;2023-06-14T18:19:00;21.10;31.60
6954;DHT22;3516;47.980;8.808;2023-06-14T18:21:28;21.00;31.80
6954;DHT22;3516;47.980;8.808;2023-06-14T18:23:55;20.90;31.90
6954;DHT22;3516;47.980;8.808;2023-06-14T18:26:24;20.90;32.00
6954;DHT22;3516;47.980;8.808;2023-06-14T18:28:51;20.80;32.00
6954;DHT22;3516;47.980;8.808;2023-06-14T18:31:18;20.80;33.00
6954;DHT22;3516;47.980;8.808;2023-06-14T18:33:45;20.70;32.30
6954;DHT22;3516;47.980;8.808;2023-06-14T18:36:11;20.60;32.60
6954;DHT22;3516;47.980;8.808;2023-06-14T18:38:39;20.60;32.60
6954;DHT22;3516;47.980;8.808;2023-06-14T18:41:06;20.50;32.60
6954;DHT22;3516;47.980;8.808;2023-06-14T18:43:33;20.50;32.60
6954;DHT22;3516;47.980;8.808;2023-06-14T18:45:59;20.40;33.00
6954;DHT22;3516;47.980;8.808;2023-06-14T18:48:26;20.40;33.10
6954;DHT22;3516;47.980;8.808;2023-06-14T18:50:53;20.30;33.40
6954;DHT22;3516;47.980;8.808;2023-06-14T18:53:20;20.20;33.80
6954;DHT22;3516;47.980;8.808;2023-06-14T18:55:48;20.20;33.70
6954;DHT22;3516;47.980;8.808;2023-06-14T18:58:16;20.10;33.90
6954;DHT22;3516;47.980;8.808;2023-06-14T19:00:42;20.00;34.50
6954;DHT22;3516;47.980;8.808;2023-06-14T19:03:09;20.00;34.70
6954;DHT22;3516;47.980;8.808;2023-06-14T19:05:36;19.90;34.60
6954;DHT22;3516;47.980;8.808;2023-06-14T19:08:03;19.80;34.50
6954;DHT22;3516;47.980;8.808;2023-06-14T19:10:29;19.80;35.50
6954;DHT22;3516;47.980;8.808;2023-06-14T19:12:58;19.70;35.20
6954;DHT22;3516;47.980;8.808;2023-06-14T19:15:25;19.60;35.10
6954;DHT22;3516;47.980;8.808;2023-06-14T19:17:55;19.50;35.30
6954;DHT22;3516;47.980;8.808;2023-06-14T19:20:25;19.40;35.60
6954;DHT22;3516;47.980;8.808;2023-06-14T19:22:52;19.30;35.90
6954;DHT22;3516;47.980;8.808;2023-06-14T19:25:19;19.20;36.30
6954;DHT22;3516;47.980;8.808;2023-06-14T19:27:46;19.10;36.40
6954;DHT22;3516;47.980;8.808;2023-06-14T19:30:15;19.10;36.50
6954;DHT22;3516;47.980;8.808;2023-06-14T19:32:42;19.00;36.40
6954;DHT22;3516;47.980;8.808;2023-06-14T19:35:09;18.90;37.20
6954;DHT22;3516;47.980;8.808;2023-06-14T19:37:36;18.80;37.70
6954;DHT22;3516;47.980;8.808;2023-06-14T19:40:04;18.70;38.30
6954;DHT22;3516;47.980;8.808;2023-06-14T19:42:31;18.60;39.80
6954;DHT22;3516;47.980;8.808;2023-06-14T19:44:57;18.50;40.70
6954;DHT22;3516;47.980;8.808;2023-06-14T19:47:26;18.40;41.30
6954;DHT22;3516;47.980;8.808;2023-06-14T19:49:52;18.30;42.30
6954;DHT22;3516;47.980;8.808;2023-06-14T19:52:19;18.20;43.00
